Hauptseite
METAR-TAF:

METAR-TAF

Flughäfen :

Flughafen Riga

Riga, Lettland

Breite: 56-55N, Länge: 023-58E, Höhe: 10 m

Beobachtung

Neuester Wetterbericht von vor 33 Minuten, um 05:20 UTC
Wind 4 kt aus Süd, variierte zwischen Südost und Süd/Südwest
Temperatur 17°C
Luftfeuchtigkeit 88%
Luftdruck 1020 hPa
Sichtweite 10 km oder mehr
keine Wolken unter 1500 m und keine Kumulonimbus oder Gewitterwolken

METAR: EVRA 170520Z 17004KT 140V200 CAVOK 17/15 Q1020 NOSIG

Zeit: 08:53 (05:53 UTC)

Prognose

Neuester Wetterbericht von vor 53 Minuten, um 05:00 UTC
Gültige Prognose vom 17 um 06 UTC bis 18 um 06 UTC
Wind 7 kt aus Süd/Südost
Sichtweite 10 km oder mehr
keine Wolken unter 1500 m und keine Kumulonimbus oder Gewitterwolken
Wahrscheinlichkeit 40% :
Zeitweise
vom 18 um 00 UTC bis 18 um 05 UTC
Sichtweite: 0700 m
Nebel

TAF: EVRA 170500Z 1706/1806 15007KT CAVOK PROB40 TEMPO 1800/1805 0700 FG

Wetterbeobachtungen und Prognosen von mehr als 4000 Flughäfen (METAR und TAF Bericht).

Die verfügbaren Stationen werden durch gelbe und rote Markierungen auf der Karte dargestellt.

Führen Sie die Maus auf sie, um den Namen der Station zu sehen.

Darauf klicken, um die Beobachtung von Wetterbeobachtungen und Prognosen zu sehen.

Um die Karte zu ändern : klicken Sie auf den grünen Tasten mit einem schwarzen Kreuz Zum Vergrößern, auf den grünen Button mit einem Gedankenstrich zu verkleinern, oder auf die grünen Pfeile für benachbarte Karten.


METAR-TAF: